Time;durP1;ratioP1;P1;durP2;ratioP2;P2;SDS_P1;SDS_P2;PMS_P1;PMS_P2;Temp;Humidity;BMP_temperature;BMP_pressure;BME280_temperature;BME280_humidity;BME280_pressure;Samples;Min_cycle;Max_cycle;Signal;HPM_P1;HPM_P2
2023/01/14 00:04:00;;;;;;;45.83;23.55;;;;;;;6.52;68.03;100093.19;7696051;32;37984;-81
2023/01/14 00:08:17;;;;;;;53.08;24.12;;;;;;;6.57;68.19;100101.44;7710982;32;39027;-80
2023/01/14 00:12:33;;;;;;;51.47;24.52;;;;;;;6.60;68.05;100102.84;7711026;32;39808;-80
2023/01/14 00:16:53;;;;;;;49.38;23.60;;;;;;;6.26;69.78;100108.03;7710816;32;38020;-80
2023/01/14 00:21:15;;;;;;;45.97;21.85;;;;;;;6.60;68.71;100124.53;7710987;32;37130;-80
2023/01/14 00:25:34;;;;;;;45.28;22.17;;;;;;;6.70;67.71;100125.56;7710968;32;39153;-80
2023/01/14 00:29:50;;;;;;;47.33;22.77;;;;;;;6.64;67.52;100122.97;7702875;32;39671;-81
2023/01/14 00:34:07;;;;;;;44.75;21.58;;;;;;;6.69;66.98;100118.50;7684000;32;38500;-80
2023/01/14 00:38:23;;;;;;;38.08;20.05;;;;;;;6.81;66.32;100115.75;7683890;32;38093;-81
2023/01/14 00:42:39;;;;;;;42.75;20.25;;;;;;;6.81;66.07;100114.94;7683866;32;40168;-80
2023/01/14 00:46:55;;;;;;;38.85;18.62;;;;;;;6.84;65.82;100119.88;7683755;32;39757;-81
2023/01/14 00:51:13;;;;;;;42.65;19.45;;;;;;;7.07;64.79;100119.00;7683679;32;37935;-80
2023/01/14 00:55:29;;;;;;;38.83;18.62;;;;;;;7.02;64.80;100124.31;7670200;32;37112;-79
2023/01/14 00:59:45;;;;;;;41.25;20.35;;;;;;;6.85;65.13;100132.37;7670439;32;39369;-79
2023/01/14 01:04:03;;;;;;;39.28;19.12;;;;;;;5.99;68.71;100136.41;7669614;32;41050;-79
2023/01/14 01:08:21;;;;;;;35.75;19.25;;;;;;;6.36;67.56;100140.78;7669988;32;38768;-80
2023/01/14 01:12:37;;;;;;;37.45;19.20;;;;;;;6.39;67.11;100130.28;7672727;32;38018;-80
2023/01/14 01:16:53;;;;;;;46.50;20.60;;;;;;;6.61;66.23;100121.56;7686451;32;39503;-79
2023/01/14 01:21:15;;;;;;;44.80;20.02;;;;;;;6.77;65.22;100130.84;7686278;32;39912;-80
2023/01/14 01:25:31;;;;;;;54.05;21.48;;;;;;;6.57;65.84;100120.38;7672909;32;37977;-80
2023/01/14 01:29:47;;;;;;;45.30;20.20;;;;;;;6.44;66.22;100132.31;7678964;32;37959;-81
2023/01/14 01:34:04;;;;;;;45.60;20.08;;;;;;;6.49;66.17;100145.16;7692198;32;40056;-80
2023/01/14 01:38:20;;;;;;;39.03;19.37;;;;;;;6.36;66.34;100138.91;7686046;32;40004;-81
2023/01/14 01:42:54;;;;;;;44.92;19.67;;;;;;;6.31;66.45;100137.94;7686053;32;38864;-80
2023/01/14 01:47:10;;;;;;;38.22;18.58;;;;;;;6.58;65.54;100135.59;7686152;32;36974;-80
2023/01/14 01:51:28;;;;;;;44.15;19.58;;;;;;;6.36;66.10;100125.37;7672624;32;39093;-80
2023/01/14 01:55:49;;;;;;;34.97;17.85;;;;;;;6.32;66.21;100148.53;7685929;32;40577;-80
2023/01/14 02:00:08;;;;;;;37.38;17.23;;;;;;;6.58;65.53;100143.72;7681076;32;38806;-81
2023/01/14 02:08:49;;;;;;;36.45;18.05;;;;;;;6.40;65.83;100136.56;7712311;32;39616;-80
2023/01/14 02:13:09;;;;;;;34.72;16.98;;;;;;;6.15;66.61;100145.69;7698999;32;39899;-80
2023/01/14 02:18:14;;;;;;;35.80;18.45;;;;;;;6.19;66.50;100144.19;7698605;32;38017;-80
2023/01/14 02:22:48;;;;;;;41.22;18.00;;;;;;;6.38;66.18;100150.31;7695264;32;37915;-80
2023/01/14 02:27:32;;;;;;;50.33;19.00;;;;;;;6.28;66.56;100149.25;7712365;32;39105;-80
2023/01/14 02:32:03;;;;;;;52.13;18.00;;;;;;;6.10;67.32;100136.66;7698965;32;40713;-80
2023/01/14 02:36:46;;;;;;;41.40;17.02;;;;;;;6.41;66.74;100154.44;7711889;32;37628;-81
2023/01/14 02:44:06;;;;;;;44.58;19.25;;;;;;;6.32;66.89;100161.28;7667433;32;37334;-81
2023/01/14 02:46:40;;;;;;;91.12;21.15;;;;;;;6.46;66.62;100145.63;7660760;32;40056;-81
2023/01/14 02:50:57;;;;;;;213.18;22.55;;;;;;;6.60;66.16;100167.88;7688450;32;40591;-80
2023/01/14 02:55:35;;;;;;;52.22;20.25;;;;;;;6.46;66.94;100172.69;7711852;32;37773;-81
2023/01/14 03:00:06;;;;;;;77.68;18.12;;;;;;;6.49;66.86;100178.47;7704157;32;37881;-80
2023/01/14 03:04:29;;;;;;;158.82;22.98;;;;;;;6.49;66.90;100180.34;7671752;32;39349;-79
2023/01/14 03:08:57;;;;;;;181.97;20.77;;;;;;;6.55;66.99;100172.13;7684812;32;40004;-80
2023/01/14 03:13:46;;;;;;;246.50;24.95;;;;;;;6.33;67.74;100176.44;7711711;32;38116;-79
2023/01/14 03:18:16;;;;;;;236.55;22.87;;;;;;;6.10;68.51;100175.34;7698832;32;37361;-80
2023/01/14 03:22:33;;;;;;;173.62;20.25;;;;;;;5.98;69.02;100183.44;7699032;32;39159;-80
2023/01/14 03:26:51;;;;;;;202.25;22.77;;;;;;;5.65;69.77;100194.72;7696394;32;40819;-81
2023/01/14 03:31:10;;;;;;;193.87;19.35;;;;;;;5.96;68.67;100190.16;7697206;32;38707;-80
2023/01/14 03:35:30;;;;;;;152.85;19.37;;;;;;;6.18;67.98;100185.03;7686373;32;38398;-80
2023/01/14 03:39:47;;;;;;;70.55;17.35;;;;;;;6.33;67.70;100187.28;7684813;32;39916;-79
2023/01/14 03:44:08;;;;;;;227.73;20.05;;;;;;;6.19;68.31;100192.09;7688821;32;40798;-81
2023/01/14 03:48:25;;;;;;;311.12;24.67;;;;;;;6.13;68.04;100196.56;7711293;32;37726;-81
2023/01/14 03:52:54;;;;;;;387.55;28.33;;;;;;;6.27;67.48;100197.16;7697681;32;37230;-80
2023/01/14 03:57:29;;;;;;;276.00;25.08;;;;;;;5.99;68.45;100206.75;7700224;32;39518;-80
2023/01/14 04:01:51;;;;;;;312.48;24.00;;;;;;;6.11;68.18;100204.09;7711295;32;40953;-80
2023/01/14 04:06:08;;;;;;;255.90;23.00;;;;;;;6.25;67.71;100199.28;7680548;32;38786;-80
2023/01/14 04:10:24;;;;;;;272.48;23.70;;;;;;;6.13;68.34;100201.97;7658355;32;37468;-80
2023/01/14 04:19:15;;;;;;;523.28;30.50;;;;;;;5.90;69.38;100191.88;7684265;32;39772;-80
2023/01/14 04:23:32;;;;;;;281.13;25.70;;;;;;;5.84;69.47;100209.03;7662550;32;37985;-80
2023/01/14 04:27:48;;;;;;;325.33;23.62;;;;;;;5.93;68.85;100225.78;7657790;32;37333;-80
2023/01/14 04:32:04;;;;;;;366.83;21.67;;;;;;;6.00;68.11;100223.81;7670044;32;40261;-80
2023/01/14 04:36:21;;;;;;;216.80;18.62;;;;;;;5.86;67.42;100239.38;7683964;32;40588;-80
2023/01/14 04:40:37;;;;;;;150.07;18.40;;;;;;;5.31;68.63;100244.88;7680611;32;37814;-79
2023/01/14 04:44:59;;;;;;;84.78;16.02;;;;;;;5.37;68.57;100252.09;7657848;32;36049;-80
2023/01/14 04:49:15;;;;;;;176.45;17.15;;;;;;;5.69;67.46;100251.91;7661963;32;39280;-80
2023/01/14 04:53:31;;;;;;;94.35;16.37;;;;;;;5.61;67.29;100251.16;7682473;32;40759;-82
2023/01/14 04:57:48;;;;;;;110.18;16.92;;;;;;;5.96;65.83;100257.81;7683420;32;38756;-80
2023/01/14 05:02:04;;;;;;;68.72;15.15;;;;;;;5.09;68.73;100275.09;7661080;32;38094;-80
2023/01/14 05:06:21;;;;;;;184.60;19.35;;;;;;;5.54;67.25;100271.25;7657107;32;39862;-80
2023/01/14 05:10:37;;;;;;;69.62;15.07;;;;;;;5.49;66.84;100269.22;7689865;32;40605;-80
2023/01/14 05:14:54;;;;;;;100.45;15.48;;;;;;;5.42;67.29;100268.47;7709724;32;38815;-80
2023/01/14 05:19:10;;;;;;;139.65;17.08;;;;;;;5.38;67.66;100273.50;7709061;32;38174;-80
2023/01/14 05:23:26;;;;;;;111.30;18.65;;;;;;;5.27;67.99;100274.25;7704892;32;39366;-80
2023/01/14 05:27:43;;;;;;;365.35;21.80;;;;;;;5.24;68.05;100274.69;7704248;32;40597;-80
2023/01/14 05:31:59;;;;;;;232.20;19.30;;;;;;;5.33;67.83;100269.81;7682712;32;38610;-80
2023/01/14 05:36:15;;;;;;;113.75;15.38;;;;;;;5.25;68.28;100271.78;7682634;32;37565;-80
2023/01/14 05:40:32;;;;;;;114.53;16.00;;;;;;;5.53;67.57;100266.88;7701758;32;40099;-80
2023/01/14 05:49:22;;;;;;;26.12;12.23;;;;;;;5.55;67.46;100276.41;7699700;32;38666;-80
2023/01/14 05:53:39;;;;;;;51.78;13.07;;;;;;;5.68;67.08;100280.84;7708834;32;35787;-80
2023/01/14 05:58:03;;;;;;;53.13;13.10;;;;;;;5.57;67.24;100287.84;7703109;32;39168;-81
2023/01/14 06:06:54;;;;;;;90.03;14.48;;;;;;;5.48;67.06;100286.50;7685914;32;38734;-81
2023/01/14 06:11:10;;;;;;;64.47;13.27;;;;;;;5.68;66.25;100280.03;7692300;32;37144;-79
2023/01/14 06:15:33;;;;;;;65.53;12.82;;;;;;;5.67;65.88;100302.72;7712482;32;39892;-80
2023/01/14 06:19:49;;;;;;;77.27;14.63;;;;;;;5.70;65.87;100294.16;7707931;32;40087;-80
2023/01/14 06:24:06;;;;;;;203.65;17.67;;;;;;;5.63;66.11;100300.47;7712006;32;37886;-81
2023/01/14 06:28:22;;;;;;;166.77;16.35;;;;;;;5.54;66.06;100295.59;7700227;32;37184;-80
2023/01/14 06:32:39;;;;;;;186.35;20.00;;;;;;;5.34;66.19;100298.50;7685662;32;38996;-80
2023/01/14 06:36:55;;;;;;;120.50;14.43;;;;;;;5.10;67.36;100302.94;7687295;32;40832;-80
2023/01/14 06:41:12;;;;;;;73.55;13.93;;;;;;;5.05;67.28;100307.12;7712091;32;38411;-81
2023/01/14 06:45:28;;;;;;;143.50;18.27;;;;;;;4.91;67.80;100312.88;7709603;32;38057;-82
2023/01/14 06:49:44;;;;;;;68.82;15.57;;;;;;;5.19;67.05;100315.94;7698215;32;37515;-81
2023/01/14 06:54:01;;;;;;;40.40;13.15;;;;;;;5.26;66.90;100311.28;7702779;32;40312;-80
2023/01/14 06:58:17;;;;;;;66.32;15.25;;;;;;;5.41;66.51;100315.50;7685115;32;37761;-80
2023/01/14 07:02:33;;;;;;;90.50;16.67;;;;;;;5.57;66.04;100327.56;7685228;32;37967;-81
2023/01/14 07:06:51;;;;;;;64.55;15.73;;;;;;;5.46;66.37;100329.16;7704861;32;39098;-80
2023/01/14 07:11:08;;;;;;;70.35;14.60;;;;;;;5.53;66.53;100345.31;7684900;32;39942;-80
2023/01/14 07:15:24;;;;;;;201.65;18.08;;;;;;;5.57;66.57;100339.25;7685086;32;38046;-81
2023/01/14 07:19:40;;;;;;;236.25;20.15;;;;;;;5.64;66.60;100350.00;7684952;32;37384;-80
2023/01/14 07:23:57;;;;;;;229.73;19.50;;;;;;;5.16;67.93;100359.63;7673063;32;394537;-80
2023/01/14 07:28:13;;;;;;;150.20;18.58;;;;;;;5.36;67.48;100358.59;7685134;32;40845;-80
2023/01/14 07:32:33;;;;;;;105.78;16.67;;;;;;;5.26;67.90;100359.94;7684960;32;38105;-80
2023/01/14 07:36:49;;;;;;;66.85;16.42;;;;;;;5.29;67.87;100360.53;7685126;32;37373;-81
2023/01/14 07:41:10;;;;;;;40.70;15.32;;;;;;;5.33;67.82;100375.25;7685000;32;39346;-80
2023/01/14 07:45:29;;;;;;;113.43;17.08;;;;;;;5.53;67.87;100367.78;7658963;32;40991;-81
2023/01/14 07:49:48;;;;;;;87.53;17.00;;;;;;;5.73;67.77;100364.03;7671952;32;38800;-81
2023/01/14 07:54:04;;;;;;;51.75;16.27;;;;;;;5.73;67.80;100358.63;7684870;32;37187;-80
2023/01/14 07:58:23;;;;;;;61.90;18.67;;;;;;;5.86;67.92;100363.06;7684750;32;38964;-79
2023/01/14 08:02:39;;;;;;;39.72;18.80;;;;;;;5.97;67.63;100373.16;7684650;32;38970;-80
2023/01/14 08:06:58;;;;;;;37.15;19.05;;;;;;;6.04;67.81;100359.50;7684603;32;37897;-83
2023/01/14 08:11:14;;;;;;;64.12;18.33;;;;;;;5.99;67.99;100358.34;7684508;32;38390;-73
2023/01/14 08:15:31;;;;;;;38.35;18.75;;;;;;;6.49;72.12;100372.69;7684597;32;39138;-80
2023/01/14 08:19:47;;;;;;;39.33;17.35;;;;;;;6.32;68.31;100367.06;7684002;32;40923;-80
2023/01/14 08:24:04;;;;;;;179.07;22.67;;;;;;;6.72;66.56;100361.06;7684348;32;38728;-80
2023/01/14 08:28:20;;;;;;;83.95;20.70;;;;;;;6.14;67.28;100371.47;7684360;32;37316;-81
2023/01/14 08:32:36;;;;;;;335.65;23.75;;;;;;;6.31;67.07;100370.81;7684233;32;40067;-76
2023/01/14 08:36:53;;;;;;;295.02;24.67;;;;;;;6.14;67.19;100376.03;7684074;32;39601;-81
2023/01/14 08:41:11;;;;;;;40.88;17.37;;;;;;;5.71;70.47;100388.63;7683941;32;38087;-81
2023/01/14 08:45:27;;;;;;;382.45;29.27;;;;;;;6.10;68.66;100391.09;7683936;32;36152;-82
2023/01/14 08:49:43;;;;;;;189.57;22.13;;;;;;;5.52;70.07;100395.03;7683870;32;39324;-82
2023/01/14 08:54:01;;;;;;;49.90;18.37;;;;;;;5.77;69.49;100403.13;7683736;32;40010;-81
2023/01/14 08:58:17;;;;;;;92.40;19.35;;;;;;;5.61;70.27;100410.75;7683633;32;38792;-80
2023/01/14 09:02:34;;;;;;;35.28;19.40;;;;;;;5.83;69.69;100418.47;7683578;32;37216;-81
2023/01/14 09:20:33;;;;;;;38.08;19.27;;;;;;;6.84;67.62;100413.41;7683041;32;38010;-81
2023/01/14 09:24:49;;;;;;;35.30;18.83;;;;;;;7.00;67.90;100416.50;7683108;32;39309;-81
2023/01/14 09:29:05;;;;;;;38.30;18.95;;;;;;;7.34;66.98;100406.75;7683181;32;40874;-82
2023/01/14 09:33:21;;;;;;;36.17;19.12;;;;;;;7.45;67.00;100414.09;7686117;32;37938;-81
2023/01/14 09:37:38;;;;;;;35.20;19.67;;;;;;;7.63;66.53;100404.19;7686149;32;37920;-81
2023/01/14 09:41:58;;;;;;;37.65;19.58;;;;;;;8.03;66.30;100397.97;7672620;32;40112;-81
2023/01/14 09:46:15;;;;;;;35.30;19.60;;;;;;;8.12;65.22;100395.69;7685966;32;39603;-81
2023/01/14 09:50:52;;;;;;;33.50;17.92;;;;;;;8.76;64.14;100401.00;7672365;32;38976;-81
2023/01/14 09:55:27;;;;;;;31.12;16.95;;;;;;;8.71;63.98;100400.91;7685799;32;37162;-82
2023/01/14 10:00:04;;;;;;;28.75;16.80;;;;;;;9.10;63.30;100382.00;7685743;32;39325;-81
2023/01/14 10:04:40;;;;;;;31.90;16.70;;;;;;;9.39;61.60;100394.44;7685335;32;39686;-82
2023/01/14 10:09:04;;;;;;;30.17;16.95;;;;;;;9.57;60.67;100384.34;7685406;32;37767;-82
2023/01/14 10:13:46;;;;;;;29.15;15.57;;;;;;;9.81;60.09;100373.22;7672225;32;37980;-81
2023/01/14 10:18:18;;;;;;;27.20;16.08;;;;;;;10.07;59.56;100367.03;7674586;32;39910;-82
2023/01/14 10:22:47;;;;;;;31.20;16.23;;;;;;;10.35;57.71;100370.66;7685526;32;40897;-81
2023/01/14 10:27:25;;;;;;;33.45;18.05;;;;;;;9.45;58.83;100387.19;7672635;32;38128;-81
2023/01/14 10:31:55;;;;;;;33.08;17.17;;;;;;;9.09;59.95;100372.19;7674634;32;37785;-82
2023/01/14 10:36:18;;;;;;;28.62;15.63;;;;;;;9.89;60.44;100364.62;7673078;32;40104;-81
2023/01/14 10:40:34;;;;;;;34.40;18.50;;;;;;;10.21;59.52;100362.03;7685490;32;41185;-83
2023/01/14 10:44:52;;;;;;;32.72;16.80;;;;;;;8.70;60.14;100364.75;7685516;32;37855;-80
2023/01/14 10:49:33;;;;;;;27.30;15.98;;;;;;;9.10;63.29;100346.66;7672096;32;37298;-81
2023/01/14 10:54:01;;;;;;;27.02;14.80;;;;;;;9.89;58.70;100356.47;7685480;32;39387;-81
2023/01/14 10:58:41;;;;;;;23.10;13.25;;;;;;;9.83;57.65;100355.59;7673262;32;40134;-81
2023/01/14 11:02:58;;;;;;;25.02;12.63;;;;;;;10.43;57.11;100348.38;7672249;32;37877;-82
2023/01/14 11:07:27;;;;;;;26.37;13.07;;;;;;;11.05;54.58;100332.56;7685346;32;37169;-81
2023/01/14 11:11:45;;;;;;;22.40;10.95;;;;;;;11.07;56.27;100330.38;7685319;32;40169;-81
2023/01/14 11:16:02;;;;;;;23.73;12.50;;;;;;;11.49;55.50;100335.03;7685366;32;39959;-81
2023/01/14 11:20:23;;;;;;;20.27;11.90;;;;;;;11.61;54.44;100324.72;7685076;32;37899;-80
2023/01/14 11:24:43;;;;;;;20.62;11.25;;;;;;;11.94;51.48;100319.16;7685092;32;37886;-80
2023/01/14 11:29:22;;;;;;;22.98;12.52;;;;;;;12.03;51.83;100315.59;7685231;32;39437;-80
2023/01/14 11:33:51;;;;;;;23.20;11.38;;;;;;;11.86;51.77;100320.44;7673461;32;40208;-81
2023/01/14 11:38:15;;;;;;;20.40;11.07;;;;;;;12.19;51.36;100318.37;7672915;32;38075;-81
2023/01/14 11:42:34;;;;;;;18.45;10.35;;;;;;;11.93;51.15;100326.50;7671548;32;36960;-81
2023/01/14 11:47:15;;;;;;;19.75;10.35;;;;;;;11.94;51.89;100311.75;7684891;32;39339;-81
2023/01/14 11:51:38;;;;;;;20.77;11.05;;;;;;;11.22;53.59;100305.91;7677142;32;39917;-80
2023/01/14 11:55:55;;;;;;;19.98;10.43;;;;;;;11.18;53.59;100310.28;7684827;32;38058;-82
2023/01/14 12:00:12;;;;;;;19.37;11.63;;;;;;;11.72;52.49;100301.00;7671284;32;38027;-81
2023/01/14 12:04:42;;;;;;;20.98;11.05;;;;;;;12.18;50.89;100294.91;7684828;32;39212;-80
2023/01/14 12:09:05;;;;;;;14.93;8.55;;;;;;;12.06;51.76;100288.84;7672094;32;40712;-81
2023/01/14 12:18:09;;;;;;;15.65;8.05;;;;;;;12.38;51.18;100292.19;7674080;32;36819;-82
2023/01/14 12:22:41;;;;;;;17.35;8.93;;;;;;;12.27;49.55;100301.47;7670975;32;39415;-81
2023/01/14 12:27:00;;;;;;;14.48;8.43;;;;;;;11.68;51.31;100280.78;7671544;32;39984;-82
2023/01/14 12:31:27;;;;;;;17.80;7.65;;;;;;;12.25;51.01;100289.97;7671303;32;37607;-81
2023/01/14 12:36:04;;;;;;;13.55;6.93;;;;;;;11.57;51.11;100288.09;7684343;32;37327;-81
2023/01/14 12:45:41;;;;;;;14.13;7.37;;;;;;;12.20;49.50;100276.31;7684107;32;40003;-82
2023/01/14 12:49:58;;;;;;;12.88;6.30;;;;;;;11.70;51.30;100277.78;7673729;32;38755;-82
2023/01/14 12:54:30;;;;;;;16.65;7.25;;;;;;;11.61;51.43;100264.63;7670261;32;37891;-82
2023/01/14 12:59:03;;;;;;;13.62;6.78;;;;;;;11.82;50.75;100253.78;7683840;32;40071;-82
2023/01/14 13:03:29;;;;;;;14.00;6.30;;;;;;;11.36;51.36;100261.78;7670541;32;40758;-82
2023/01/14 13:07:49;;;;;;;15.85;7.18;;;;;;;11.82;51.14;100267.44;7683385;32;38638;-82
2023/01/14 13:12:14;;;;;;;15.55;6.80;;;;;;;11.98;50.53;100269.12;7669942;32;37052;-82
2023/01/14 13:16:35;;;;;;;13.10;6.75;;;;;;;12.07;50.01;100261.22;7683468;32;39413;-82
2023/01/14 13:20:52;;;;;;;13.18;7.40;;;;;;;12.69;49.78;100251.16;7670029;32;40900;-82
2023/01/14 13:25:35;;;;;;;14.18;6.35;;;;;;;12.81;48.54;100245.41;7683167;32;38467;-81
2023/01/14 13:30:11;;;;;;;13.50;6.80;;;;;;;13.61;47.61;100244.69;7683094;32;37267;-82
2023/01/14 13:34:32;;;;;;;17.15;7.50;;;;;;;12.90;47.42;100251.13;7671665;32;39344;-81
2023/01/14 13:39:05;;;;;;;12.60;6.05;;;;;;;12.86;47.58;100239.12;7683005;32;40771;-82
2023/01/14 13:43:26;;;;;;;11.03;5.87;;;;;;;14.02;43.84;100232.66;7682710;32;38034;-82
2023/01/14 13:47:48;;;;;;;13.35;6.10;;;;;;;13.93;43.91;100239.84;7682651;32;37310;-83
2023/01/14 13:52:21;;;;;;;13.43;5.90;;;;;;;14.67;42.55;100242.62;7682606;32;40235;-82
2023/01/14 13:57:06;;;;;;;9.40;5.53;;;;;;;15.86;39.66;100230.03;7669280;32;40719;-82
2023/01/14 14:01:31;;;;;;;12.95;4.90;;;;;;;17.84;35.45;100233.41;7670855;32;37857;-83
2023/01/14 14:06:07;;;;;;;9.80;4.85;;;;;;;19.67;31.74;100229.00;7682250;32;37122;-83
2023/01/14 14:10:37;;;;;;;9.52;4.75;;;;;;;21.22;29.93;100229.56;7682057;32;39356;-83
2023/01/14 14:14:53;;;;;;;8.23;4.70;;;;;;;22.35;26.80;100228.84;7682401;32;40633;-84
2023/01/14 14:19:10;;;;;;;9.55;4.60;;;;;;;21.74;27.43;100232.88;7685779;32;37954;-84
2023/01/14 14:23:33;;;;;;;10.68;4.72;;;;;;;23.12;26.16;100235.91;7685830;32;37143;-84
2023/01/14 14:27:50;;;;;;;8.75;4.28;;;;;;;21.41;27.22;100240.22;7672932;32;39382;-82
2023/01/14 14:32:20;;;;;;;9.68;4.47;;;;;;;21.68;27.42;100237.00;7684944;32;41158;-83
2023/01/14 14:36:47;;;;;;;11.23;4.37;;;;;;;21.39;27.44;100235.81;7699095;32;37728;-84
2023/01/14 14:41:27;;;;;;;8.80;4.00;;;;;;;18.03;32.91;100260.87;7697335;32;37948;-82
2023/01/14 14:45:57;;;;;;;8.40;3.58;;;;;;;19.80;29.95;100248.56;7684288;32;39339;-83
2023/01/14 14:50:21;;;;;;;7.37;3.10;;;;;;;19.55;29.98;100247.37;7704931;32;40066;-82
2023/01/14 14:54:38;;;;;;;6.10;3.08;;;;;;;20.17;28.88;100236.09;7671827;32;38031;-82
2023/01/14 14:58:56;;;;;;;9.32;4.22;;;;;;;19.33;30.07;100236.09;7685528;32;38151;-82
2023/01/14 15:03:18;;;;;;;7.85;4.35;;;;;;;19.97;29.67;100232.03;7711417;32;40478;-83
2023/01/14 15:07:38;;;;;;;8.00;4.07;;;;;;;18.73;31.24;100240.16;7689200;32;40805;-82
2023/01/14 15:11:57;;;;;;;10.00;4.95;;;;;;;16.92;33.95;100243.50;7683729;32;37766;-82
2023/01/14 15:16:18;;;;;;;6.68;3.70;;;;;;;15.56;37.29;100256.78;7685012;32;36975;-82
2023/01/14 15:20:35;;;;;;;9.63;4.20;;;;;;;14.52;40.49;100271.81;7685044;32;38526;-82
2023/01/14 15:24:52;;;;;;;13.70;7.18;;;;;;;14.09;40.96;100277.06;7684620;32;40819;-82
2023/01/14 15:29:28;;;;;;;9.63;5.43;;;;;;;13.58;41.66;100280.03;7664244;32;38728;-81
2023/01/14 15:33:58;;;;;;;11.50;5.55;;;;;;;13.13;43.03;100283.41;7654690;32;36791;-81
2023/01/14 15:38:17;;;;;;;13.68;6.90;;;;;;;12.48;44.54;100285.09;7655613;32;39201;-81
2023/01/14 15:42:33;;;;;;;18.23;8.82;;;;;;;11.96;45.86;100290.44;7656801;32;39789;-81
2023/01/14 15:46:49;;;;;;;12.52;7.15;;;;;;;11.44;47.39;100288.59;7678572;32;38713;-82
2023/01/14 15:51:06;;;;;;;12.07;6.60;;;;;;;10.96;48.61;100285.84;7684939;32;37018;-80
2023/01/14 15:55:23;;;;;;;10.82;6.10;;;;;;;10.62;49.64;100293.47;7683252;32;40165;-82
2023/01/14 15:59:40;;;;;;;11.40;5.82;;;;;;;10.42;50.12;100302.31;7684780;32;40918;-80
2023/01/14 16:03:58;;;;;;;12.98;5.70;;;;;;;10.11;51.06;100302.78;7658995;32;38073;-81
2023/01/14 16:08:17;;;;;;;9.77;5.10;;;;;;;9.43;53.19;100306.84;7660976;32;36072;-82
2023/01/14 16:12:33;;;;;;;12.88;6.62;;;;;;;9.56;52.78;100295.59;7684801;32;40054;-81
2023/01/14 16:16:50;;;;;;;17.67;7.03;;;;;;;9.37;54.63;100309.50;7684620;32;39997;-82
2023/01/14 16:21:09;;;;;;;10.65;5.05;;;;;;;9.50;53.21;100305.63;7699243;32;38654;-82
2023/01/14 16:25:27;;;;;;;7.87;4.45;;;;;;;9.06;53.59;100304.72;7710052;32;37973;-82
2023/01/14 16:29:44;;;;;;;9.05;4.15;;;;;;;9.25;52.87;100302.53;7683731;32;39468;-82
2023/01/14 16:34:00;;;;;;;8.13;4.10;;;;;;;9.21;53.21;100299.50;7683184;32;39969;-81
2023/01/14 16:38:16;;;;;;;7.00;3.90;;;;;;;8.53;55.12;100291.34;7682771;32;37952;-80
2023/01/14 16:42:34;;;;;;;9.93;4.70;;;;;;;8.64;54.69;100290.47;7683192;32;37104;-82
2023/01/14 16:46:50;;;;;;;21.58;11.30;;;;;;;8.63;54.97;100286.09;7684226;32;39368;-80
2023/01/14 16:51:17;;;;;;;13.95;8.13;;;;;;;8.57;55.59;100273.50;7683943;32;40512;-80
2023/01/14 16:55:34;;;;;;;13.57;6.75;;;;;;;8.07;56.76;100283.19;7683361;32;38775;-80
2023/01/14 16:59:50;;;;;;;11.77;6.37;;;;;;;8.25;55.41;100276.72;7682310;32;37985;-80
2023/01/14 17:04:06;;;;;;;13.52;6.22;;;;;;;8.09;55.67;100282.97;7682582;32;39325;-80
2023/01/14 17:08:22;;;;;;;11.15;5.40;;;;;;;8.15;55.34;100286.59;7682536;32;41229;-82
2023/01/14 17:12:39;;;;;;;10.30;4.15;;;;;;;8.02;55.50;100287.69;7682651;32;37897;-81
2023/01/14 17:16:56;;;;;;;8.68;4.40;;;;;;;7.80;56.52;100285.66;7680944;32;37989;-81
2023/01/14 17:21:13;;;;;;;8.43;4.40;;;;;;;7.66;56.63;100276.97;7682502;32;39278;-80
2023/01/14 17:25:30;;;;;;;14.60;5.10;;;;;;;7.39;57.71;100279.41;7679287;32;40004;-81
2023/01/14 17:29:46;;;;;;;9.02;4.53;;;;;;;7.49;57.73;100279.59;7681037;32;37889;-81
2023/01/14 17:34:02;;;;;;;10.05;5.90;;;;;;;7.53;56.91;100275.34;7682008;32;38642;-81
2023/01/14 17:38:19;;;;;;;8.73;5.00;;;;;;;7.19;57.89;100278.94;7682166;32;39884;-81
2023/01/14 17:42:35;;;;;;;13.90;6.70;;;;;;;7.29;57.61;100279.16;7681650;32;39954;-81
2023/01/14 17:46:51;;;;;;;13.10;7.70;;;;;;;7.30;57.64;100275.41;7681439;32;37847;-81
2023/01/14 17:51:07;;;;;;;13.48;7.78;;;;;;;7.47;57.59;100279.03;7683014;32;37104;-81
2023/01/14 17:55:24;;;;;;;16.80;7.95;;;;;;;6.77;61.07;100290.75;7685704;32;39607;-81
2023/01/14 17:59:41;;;;;;;14.95;8.75;;;;;;;6.53;60.42;100277.16;7684909;32;40954;-81
2023/01/14 18:03:57;;;;;;;19.80;10.15;;;;;;;6.72;59.06;100283.31;7684933;32;37834;-81
2023/01/14 18:08:13;;;;;;;14.82;7.80;;;;;;;6.45;59.54;100273.97;7685827;32;37127;-81
2023/01/14 18:12:30;;;;;;;15.05;9.38;;;;;;;6.51;59.57;100292.81;7684288;32;39827;-81
2023/01/14 18:16:46;;;;;;;25.30;16.27;;;;;;;6.30;60.51;100299.59;7684619;32;40908;-80
2023/01/14 18:21:07;;;;;;;20.52;13.25;;;;;;;6.50;59.46;100287.63;7684904;32;38675;-81
2023/01/14 18:25:24;;;;;;;16.02;9.10;;;;;;;6.11;60.77;100295.31;7684914;32;37158;-81
2023/01/14 18:29:40;;;;;;;16.58;8.88;;;;;;;6.32;59.90;100283.12;7685945;32;37626;-79
2023/01/14 18:33:58;;;;;;;16.00;7.35;;;;;;;6.14;59.93;100295.69;7685535;32;39884;-80
2023/01/14 18:38:15;;;;;;;13.30;7.32;;;;;;;6.19;60.21;100273.31;7685453;32;36846;-79
2023/01/14 18:42:31;;;;;;;14.20;7.65;;;;;;;6.12;61.31;100276.12;7685317;32;37868;-80
2023/01/14 18:46:48;;;;;;;17.77;10.00;;;;;;;6.15;61.58;100285.66;7685575;32;39229;-82
2023/01/14 18:51:04;;;;;;;16.37;8.60;;;;;;;6.17;61.85;100286.25;7693594;32;40781;-81
2023/01/14 18:55:22;;;;;;;25.50;12.48;;;;;;;5.95;61.61;100281.34;7706864;32;37968;-81
2023/01/14 18:59:38;;;;;;;32.00;14.63;;;;;;;5.68;63.52;100280.03;7712004;32;38039;-80
2023/01/14 19:03:55;;;;;;;28.10;15.52;;;;;;;5.95;62.73;100269.66;7710678;32;40221;-80
2023/01/14 19:08:11;;;;;;;32.72;16.52;;;;;;;5.81;62.66;100274.44;7711471;32;40630;-79
2023/01/14 19:12:27;;;;;;;33.83;17.30;;;;;;;5.71;63.68;100284.97;7712042;32;37906;-80
2023/01/14 19:16:44;;;;;;;31.37;16.23;;;;;;;5.67;64.03;100272.97;7689444;32;37308;-82
2023/01/14 19:21:01;;;;;;;31.98;17.52;;;;;;;5.56;64.47;100277.25;7707869;32;39547;-83
2023/01/14 19:25:17;;;;;;;31.23;15.52;;;;;;;5.01;65.90;100287.00;7699966;32;39906;-84
2023/01/14 19:29:34;;;;;;;33.53;17.12;;;;;;;4.98;65.97;100283.91;7685290;32;38842;-83
2023/01/14 19:33:52;;;;;;;34.40;18.40;;;;;;;5.29;65.66;100282.16;7696452;32;37070;-81
2023/01/14 19:38:08;;;;;;;41.75;19.80;;;;;;;5.48;66.34;100281.06;7684931;32;41416;-81
2023/01/14 19:42:25;;;;;;;36.80;19.58;;;;;;;5.58;66.38;100275.16;7689969;32;39741;-81
2023/01/14 19:46:42;;;;;;;39.85;19.00;;;;;;;5.53;67.16;100262.28;7706462;32;37776;-83
2023/01/14 19:50:59;;;;;;;34.58;18.02;;;;;;;5.56;67.52;100251.03;7695484;32;37308;-82
2023/01/14 19:55:16;;;;;;;40.60;18.17;;;;;;;5.54;67.31;100253.13;7673647;32;39356;-82
2023/01/14 19:59:32;;;;;;;37.47;18.42;;;;;;;5.36;66.82;100258.56;7682500;32;40874;-83
2023/01/14 20:03:48;;;;;;;39.65;17.73;;;;;;;5.67;65.65;100254.03;7682214;32;38408;-83
2023/01/14 20:08:06;;;;;;;36.65;17.77;;;;;;;5.56;66.05;100251.03;7682214;32;36954;-82
2023/01/14 20:12:23;;;;;;;35.10;18.58;;;;;;;5.05;67.07;100238.72;7680047;32;39276;-83
2023/01/14 20:16:39;;;;;;;36.88;19.77;;;;;;;5.11;66.17;100240.53;7683897;32;39634;-82
2023/01/14 20:20:57;;;;;;;38.78;19.40;;;;;;;5.45;64.48;100232.88;7683657;32;38055;-84
2023/01/14 20:25:14;;;;;;;32.40;17.50;;;;;;;5.33;64.69;100223.84;7682051;32;38129;-84
2023/01/14 20:29:32;;;;;;;44.38;19.67;;;;;;;4.72;66.67;100234.47;7682257;32;39597;-85
2023/01/14 20:33:48;;;;;;;36.05;18.50;;;;;;;4.87;66.24;100248.47;7682166;32;40912;-83
2023/01/14 20:38:06;;;;;;;40.47;19.80;;;;;;;4.85;66.76;100231.66;7680960;32;37979;-84
2023/01/14 20:42:22;;;;;;;36.45;19.25;;;;;;;5.18;65.93;100230.47;7680121;32;37222;-84